sensor_id;sensor_type;location;lat;lon;timestamp;temperature;humidity
48988;DHT22;34799;51.440;-2.534;2023-01-05T00:01:43;10.90;99.90
48988;DHT22;34799;51.440;-2.534;2023-01-05T00:04:10;10.80;99.90
48988;DHT22;34799;51.440;-2.534;2023-01-05T00:06:38;10.90;99.90
48988;DHT22;34799;51.440;-2.534;2023-01-05T00:09:07;10.80;99.90
48988;DHT22;34799;51.440;-2.534;2023-01-05T00:11:36;11.00;99.90
48988;DHT22;34799;51.440;-2.534;2023-01-05T00:14:25;10.90;99.90
48988;DHT22;34799;51.440;-2.534;2023-01-05T00:17:12;10.90;99.90
48988;DHT22;34799;51.440;-2.534;2023-01-05T00:20:00;10.80;99.90
48988;DHT22;34799;51.440;-2.534;2023-01-05T00:22:50;10.90;99.90
48988;DHT22;34799;51.440;-2.534;2023-01-05T00:25:29;10.80;99.90
48988;DHT22;34799;51.440;-2.534;2023-01-05T00:27:56;11.60;99.90
48988;DHT22;34799;51.440;-2.534;2023-01-05T00:30:29;10.90;99.90
48988;DHT22;34799;51.440;-2.534;2023-01-05T00:32:56;10.90;99.90
48988;DHT22;34799;51.440;-2.534;2023-01-05T00:35:23;10.90;99.90
48988;DHT22;34799;51.440;-2.534;2023-01-05T00:37:51;10.90;99.90
48988;DHT22;34799;51.440;-2.534;2023-01-05T00:40:21;10.90;99.90
48988;DHT22;34799;51.440;-2.534;2023-01-05T00:42:48;10.90;99.90
48988;DHT22;34799;51.440;-2.534;2023-01-05T00:45:16;10.90;99.90
48988;DHT22;34799;51.440;-2.534;2023-01-05T00:47:44;10.90;99.90
48988;DHT22;34799;51.440;-2.534;2023-01-05T00:50:15;10.90;99.90
48988;DHT22;34799;51.440;-2.534;2023-01-05T00:52:43;11.00;99.90
48988;DHT22;34799;51.440;-2.534;2023-01-05T00:55:10;11.00;99.90
48988;DHT22;34799;51.440;-2.534;2023-01-05T00:57:39;11.00;99.90
48988;DHT22;34799;51.440;-2.534;2023-01-05T01:00:10;11.00;99.90
48988;DHT22;34799;51.440;-2.534;2023-01-05T01:02:39;11.00;99.90
48988;DHT22;34799;51.440;-2.534;2023-01-05T01:05:07;11.00;99.90
48988;DHT22;34799;51.440;-2.534;2023-01-05T01:07:34;10.90;99.90
48988;DHT22;34799;51.440;-2.534;2023-01-05T01:10:04;11.00;99.90
48988;DHT22;34799;51.440;-2.534;2023-01-05T01:12:32;11.00;99.90
48988;DHT22;34799;51.440;-2.534;2023-01-05T01:14:59;11.00;99.90
48988;DHT22;34799;51.440;-2.534;2023-01-05T01:17:26;11.00;99.90
48988;DHT22;34799;51.440;-2.534;2023-01-05T01:19:53;11.00;99.90
48988;DHT22;34799;51.440;-2.534;2023-01-05T01:22:20;11.00;99.90
48988;DHT22;34799;51.440;-2.534;2023-01-05T01:24:47;11.00;99.90
48988;DHT22;34799;51.440;-2.534;2023-01-05T01:27:15;10.90;99.90
48988;DHT22;34799;51.440;-2.534;2023-01-05T01:29:42;10.90;99.90
48988;DHT22;34799;51.440;-2.534;2023-01-05T01:32:09;10.90;99.90
48988;DHT22;34799;51.440;-2.534;2023-01-05T01:34:36;10.90;99.90
48988;DHT22;34799;51.440;-2.534;2023-01-05T01:37:05;10.50;99.90
48988;DHT22;34799;51.440;-2.534;2023-01-05T01:39:38;10.80;99.90
48988;DHT22;34799;51.440;-2.534;2023-01-05T01:42:13;10.80;99.90
48988;DHT22;34799;51.440;-2.534;2023-01-05T01:44:58;10.80;99.90
48988;DHT22;34799;51.440;-2.534;2023-01-05T01:47:39;10.80;99.90
48988;DHT22;34799;51.440;-2.534;2023-01-05T01:50:15;10.80;99.90
48988;DHT22;34799;51.440;-2.534;2023-01-05T01:52:44;10.80;99.90
48988;DHT22;34799;51.440;-2.534;2023-01-05T01:55:14;10.80;99.90
48988;DHT22;34799;51.440;-2.534;2023-01-05T01:57:43;10.80;99.90
48988;DHT22;34799;51.440;-2.534;2023-01-05T02:00:12;10.80;99.90
48988;DHT22;34799;51.440;-2.534;2023-01-05T02:02:46;10.80;99.90
48988;DHT22;34799;51.440;-2.534;2023-01-05T02:05:19;10.80;99.90
48988;DHT22;34799;51.440;-2.534;2023-01-05T02:07:48;10.80;99.90
48988;DHT22;34799;51.440;-2.534;2023-01-05T02:10:17;10.90;99.90
48988;DHT22;34799;51.440;-2.534;2023-01-05T02:13:12;10.80;99.90
48988;DHT22;34799;51.440;-2.534;2023-01-05T02:21:32;10.80;99.90
48988;DHT22;34799;51.440;-2.534;2023-01-05T02:24:23;11.90;99.90
48988;DHT22;34799;51.440;-2.534;2023-01-05T02:32:20;10.70;99.90
48988;DHT22;34799;51.440;-2.534;2023-01-05T02:35:05;10.70;99.90
48988;DHT22;34799;51.440;-2.534;2023-01-05T02:37:39;10.80;99.90
48988;DHT22;34799;51.440;-2.534;2023-01-05T02:40:15;10.80;99.90
48988;DHT22;34799;51.440;-2.534;2023-01-05T02:42:46;10.80;99.90
48988;DHT22;34799;51.440;-2.534;2023-01-05T02:45:21;10.80;99.90
48988;DHT22;34799;51.440;-2.534;2023-01-05T02:47:53;10.80;99.90
48988;DHT22;34799;51.440;-2.534;2023-01-05T02:50:35;11.10;99.90
48988;DHT22;34799;51.440;-2.534;2023-01-05T02:53:21;10.90;99.90
48988;DHT22;34799;51.440;-2.534;2023-01-05T02:55:54;10.90;99.90
48988;DHT22;34799;51.440;-2.534;2023-01-05T02:58:52;10.90;99.90
48988;DHT22;34799;51.440;-2.534;2023-01-05T03:01:29;10.90;99.90
48988;DHT22;34799;51.440;-2.534;2023-01-05T03:04:00;11.00;99.90
48988;DHT22;34799;51.440;-2.534;2023-01-05T03:06:35;11.00;99.90
48988;DHT22;34799;51.440;-2.534;2023-01-05T03:09:17;11.00;99.90
48988;DHT22;34799;51.440;-2.534;2023-01-05T03:12:00;11.00;99.90
48988;DHT22;34799;51.440;-2.534;2023-01-05T03:14:54;11.00;99.90
48988;DHT22;34799;51.440;-2.534;2023-01-05T03:17:35;11.00;99.90
48988;DHT22;34799;51.440;-2.534;2023-01-05T03:20:06;11.00;99.90
48988;DHT22;34799;51.440;-2.534;2023-01-05T03:22:35;11.10;99.90
48988;DHT22;34799;51.440;-2.534;2023-01-05T03:25:23;11.10;99.90
48988;DHT22;34799;51.440;-2.534;2023-01-05T03:28:17;11.10;99.90
48988;DHT22;34799;51.440;-2.534;2023-01-05T03:31:26;11.10;99.90
48988;DHT22;34799;51.440;-2.534;2023-01-05T03:34:26;11.10;99.90
48988;DHT22;34799;51.440;-2.534;2023-01-05T03:37:32;11.10;99.90
48988;DHT22;34799;51.440;-2.534;2023-01-05T03:40:02;11.10;99.90
48988;DHT22;34799;51.440;-2.534;2023-01-05T03:42:34;11.10;99.90
48988;DHT22;34799;51.440;-2.534;2023-01-05T03:45:03;11.20;99.90
48988;DHT22;34799;51.440;-2.534;2023-01-05T03:47:35;11.20;99.90
48988;DHT22;34799;51.440;-2.534;2023-01-05T03:50:02;11.30;99.90
48988;DHT22;34799;51.440;-2.534;2023-01-05T03:52:30;11.20;99.90
48988;DHT22;34799;51.440;-2.534;2023-01-05T03:55:00;11.20;99.90
48988;DHT22;34799;51.440;-2.534;2023-01-05T03:57:27;11.20;99.90
48988;DHT22;34799;51.440;-2.534;2023-01-05T03:59:55;11.30;99.90
48988;DHT22;34799;51.440;-2.534;2023-01-05T04:02:22;11.30;99.90
48988;DHT22;34799;51.440;-2.534;2023-01-05T04:04:49;11.30;99.90
48988;DHT22;34799;51.440;-2.534;2023-01-05T04:07:19;11.30;99.90
48988;DHT22;34799;51.440;-2.534;2023-01-05T04:09:47;11.30;99.90
48988;DHT22;34799;51.440;-2.534;2023-01-05T04:12:15;11.30;99.90
48988;DHT22;34799;51.440;-2.534;2023-01-05T04:14:44;11.30;99.90
48988;DHT22;34799;51.440;-2.534;2023-01-05T04:17:12;11.40;99.90
48988;DHT22;34799;51.440;-2.534;2023-01-05T04:19:39;11.40;99.90
48988;DHT22;34799;51.440;-2.534;2023-01-05T04:22:06;11.40;99.90
48988;DHT22;34799;51.440;-2.534;2023-01-05T04:24:33;11.50;99.90
48988;DHT22;34799;51.440;-2.534;2023-01-05T04:27:02;11.50;99.90
48988;DHT22;34799;51.440;-2.534;2023-01-05T04:29:29;11.50;99.90
48988;DHT22;34799;51.440;-2.534;2023-01-05T04:31:59;11.50;99.90
48988;DHT22;34799;51.440;-2.534;2023-01-05T04:34:26;11.50;99.90
48988;DHT22;34799;51.440;-2.534;2023-01-05T04:36:56;11.50;99.90
48988;DHT22;34799;51.440;-2.534;2023-01-05T04:39:24;11.50;99.90
48988;DHT22;34799;51.440;-2.534;2023-01-05T04:41:52;11.50;99.90
48988;DHT22;34799;51.440;-2.534;2023-01-05T04:44:21;11.40;99.90
48988;DHT22;34799;51.440;-2.534;2023-01-05T04:46:49;11.30;99.90
48988;DHT22;34799;51.440;-2.534;2023-01-05T04:49:17;11.30;99.90
48988;DHT22;34799;51.440;-2.534;2023-01-05T04:51:48;11.20;99.90
48988;DHT22;34799;51.440;-2.534;2023-01-05T04:54:16;11.20;99.90
48988;DHT22;34799;51.440;-2.534;2023-01-05T04:56:43;11.20;99.90
48988;DHT22;34799;51.440;-2.534;2023-01-05T04:59:14;11.10;99.90
48988;DHT22;34799;51.440;-2.534;2023-01-05T05:01:42;11.10;99.90
48988;DHT22;34799;51.440;-2.534;2023-01-05T05:04:12;11.10;99.90
48988;DHT22;34799;51.440;-2.534;2023-01-05T05:06:40;11.20;99.90
48988;DHT22;34799;51.440;-2.534;2023-01-05T05:09:08;11.10;99.90
48988;DHT22;34799;51.440;-2.534;2023-01-05T05:11:36;11.10;99.90
48988;DHT22;34799;51.440;-2.534;2023-01-05T05:14:03;11.10;99.90
48988;DHT22;34799;51.440;-2.534;2023-01-05T05:16:32;11.10;99.90
48988;DHT22;34799;51.440;-2.534;2023-01-05T05:19:00;11.10;99.90
48988;DHT22;34799;51.440;-2.534;2023-01-05T05:21:27;11.00;99.90
48988;DHT22;34799;51.440;-2.534;2023-01-05T05:23:54;11.00;99.90
48988;DHT22;34799;51.440;-2.534;2023-01-05T05:26:21;11.00;99.90
48988;DHT22;34799;51.440;-2.534;2023-01-05T05:28:50;11.10;99.90
48988;DHT22;34799;51.440;-2.534;2023-01-05T05:31:17;11.00;99.90
48988;DHT22;34799;51.440;-2.534;2023-01-05T05:33:44;11.10;99.90
48988;DHT22;34799;51.440;-2.534;2023-01-05T05:36:11;11.00;99.90
48988;DHT22;34799;51.440;-2.534;2023-01-05T05:38:38;11.10;99.90
48988;DHT22;34799;51.440;-2.534;2023-01-05T05:41:06;11.00;99.90
48988;DHT22;34799;51.440;-2.534;2023-01-05T05:43:34;11.00;99.90
48988;DHT22;34799;51.440;-2.534;2023-01-05T05:46:01;11.00;99.90
48988;DHT22;34799;51.440;-2.534;2023-01-05T05:48:28;11.00;99.90
48988;DHT22;34799;51.440;-2.534;2023-01-05T05:50:55;11.00;99.90
48988;DHT22;34799;51.440;-2.534;2023-01-05T05:53:22;11.00;99.90
48988;DHT22;34799;51.440;-2.534;2023-01-05T05:55:50;11.00;99.90
48988;DHT22;34799;51.440;-2.534;2023-01-05T05:58:18;11.10;99.90
48988;DHT22;34799;51.440;-2.534;2023-01-05T06:00:45;11.00;99.90
48988;DHT22;34799;51.440;-2.534;2023-01-05T06:03:12;11.20;99.90
48988;DHT22;34799;51.440;-2.534;2023-01-05T06:05:40;11.10;99.90
48988;DHT22;34799;51.440;-2.534;2023-01-05T06:08:07;11.10;99.90
48988;DHT22;34799;51.440;-2.534;2023-01-05T06:10:34;11.10;99.90
48988;DHT22;34799;51.440;-2.534;2023-01-05T06:13:03;11.10;99.90
48988;DHT22;34799;51.440;-2.534;2023-01-05T06:15:30;11.10;99.90
48988;DHT22;34799;51.440;-2.534;2023-01-05T06:17:57;11.20;99.90
48988;DHT22;34799;51.440;-2.534;2023-01-05T06:20:25;11.20;99.90
48988;DHT22;34799;51.440;-2.534;2023-01-05T06:22:52;11.20;99.90
48988;DHT22;34799;51.440;-2.534;2023-01-05T06:25:20;11.10;99.90
48988;DHT22;34799;51.440;-2.534;2023-01-05T06:27:47;11.10;99.90
48988;DHT22;34799;51.440;-2.534;2023-01-05T06:30:14;11.20;99.90
48988;DHT22;34799;51.440;-2.534;2023-01-05T06:32:42;11.20;99.90
48988;DHT22;34799;51.440;-2.534;2023-01-05T06:35:09;11.20;99.90
48988;DHT22;34799;51.440;-2.534;2023-01-05T06:37:36;11.20;99.90
48988;DHT22;34799;51.440;-2.534;2023-01-05T06:40:05;11.20;99.90
48988;DHT22;34799;51.440;-2.534;2023-01-05T06:42:32;11.20;99.90
48988;DHT22;34799;51.440;-2.534;2023-01-05T06:44:59;11.20;99.90
48988;DHT22;34799;51.440;-2.534;2023-01-05T06:47:26;11.30;99.90
48988;DHT22;34799;51.440;-2.534;2023-01-05T06:49:53;11.30;99.90
48988;DHT22;34799;51.440;-2.534;2023-01-05T06:52:20;11.30;99.90
48988;DHT22;34799;51.440;-2.534;2023-01-05T06:54:48;11.30;99.90
48988;DHT22;34799;51.440;-2.534;2023-01-05T06:57:15;11.30;99.90
48988;DHT22;34799;51.440;-2.534;2023-01-05T06:59:42;11.30;99.90
48988;DHT22;34799;51.440;-2.534;2023-01-05T07:02:15;11.30;99.90
48988;DHT22;34799;51.440;-2.534;2023-01-05T07:04:42;11.30;99.90
48988;DHT22;34799;51.440;-2.534;2023-01-05T07:07:11;11.20;99.90
48988;DHT22;34799;51.440;-2.534;2023-01-05T07:09:39;11.30;99.90
48988;DHT22;34799;51.440;-2.534;2023-01-05T07:12:07;11.30;99.90
48988;DHT22;34799;51.440;-2.534;2023-01-05T07:14:34;11.30;99.90
48988;DHT22;34799;51.440;-2.534;2023-01-05T07:17:01;11.30;99.90
48988;DHT22;34799;51.440;-2.534;2023-01-05T07:19:28;11.30;99.90
48988;DHT22;34799;51.440;-2.534;2023-01-05T07:21:56;11.30;99.90
48988;DHT22;34799;51.440;-2.534;2023-01-05T07:24:25;11.30;99.90
48988;DHT22;34799;51.440;-2.534;2023-01-05T07:26:52;11.30;99.90
48988;DHT22;34799;51.440;-2.534;2023-01-05T07:29:19;11.30;99.90
48988;DHT22;34799;51.440;-2.534;2023-01-05T07:31:46;11.30;99.90
48988;DHT22;34799;51.440;-2.534;2023-01-05T07:34:15;11.40;99.90
48988;DHT22;34799;51.440;-2.534;2023-01-05T07:36:43;11.40;99.90
48988;DHT22;34799;51.440;-2.534;2023-01-05T07:39:10;11.40;99.90
48988;DHT22;34799;51.440;-2.534;2023-01-05T07:41:37;11.40;99.90
48988;DHT22;34799;51.440;-2.534;2023-01-05T07:44:05;11.40;99.90
48988;DHT22;34799;51.440;-2.534;2023-01-05T07:46:32;11.40;99.90
48988;DHT22;34799;51.440;-2.534;2023-01-05T07:49:00;11.40;99.90
48988;DHT22;34799;51.440;-2.534;2023-01-05T07:51:28;11.40;99.90
48988;DHT22;34799;51.440;-2.534;2023-01-05T07:53:56;11.40;99.90
48988;DHT22;34799;51.440;-2.534;2023-01-05T07:56:23;11.50;99.90
48988;DHT22;34799;51.440;-2.534;2023-01-05T07:58:50;11.50;99.90
48988;DHT22;34799;51.440;-2.534;2023-01-05T08:01:17;11.40;99.90
48988;DHT22;34799;51.440;-2.534;2023-01-05T08:03:45;11.40;99.90
48988;DHT22;34799;51.440;-2.534;2023-01-05T08:06:14;11.40;99.90
48988;DHT22;34799;51.440;-2.534;2023-01-05T08:08:43;11.40;99.90
48988;DHT22;34799;51.440;-2.534;2023-01-05T08:11:13;11.40;99.90
48988;DHT22;34799;51.440;-2.534;2023-01-05T08:13:44;11.40;99.90
48988;DHT22;34799;51.440;-2.534;2023-01-05T08:16:31;11.40;99.90
48988;DHT22;34799;51.440;-2.534;2023-01-05T08:18:59;11.40;99.90
48988;DHT22;34799;51.440;-2.534;2023-01-05T08:21:26;11.40;99.90
48988;DHT22;34799;51.440;-2.534;2023-01-05T08:23:53;11.50;99.90
48988;DHT22;34799;51.440;-2.534;2023-01-05T08:26:22;11.50;99.90
48988;DHT22;34799;51.440;-2.534;2023-01-05T08:28:51;11.40;99.90
48988;DHT22;34799;51.440;-2.534;2023-01-05T08:31:24;11.50;99.90
48988;DHT22;34799;51.440;-2.534;2023-01-05T08:33:59;11.50;99.90
48988;DHT22;34799;51.440;-2.534;2023-01-05T08:36:28;11.40;99.90
48988;DHT22;34799;51.440;-2.534;2023-01-05T08:38:57;11.50;99.90
48988;DHT22;34799;51.440;-2.534;2023-01-05T08:41:35;11.50;99.90
48988;DHT22;34799;51.440;-2.534;2023-01-05T08:44:05;11.50;99.90
48988;DHT22;34799;51.440;-2.534;2023-01-05T08:46:34;11.50;99.90
48988;DHT22;34799;51.440;-2.534;2023-01-05T08:49:04;11.50;99.90
48988;DHT22;34799;51.440;-2.534;2023-01-05T08:51:32;11.50;99.90
48988;DHT22;34799;51.440;-2.534;2023-01-05T08:53:59;11.70;99.90
48988;DHT22;34799;51.440;-2.534;2023-01-05T08:56:27;11.60;99.90
48988;DHT22;34799;51.440;-2.534;2023-01-05T08:58:56;11.60;99.90
48988;DHT22;34799;51.440;-2.534;2023-01-05T09:01:25;11.60;99.90
48988;DHT22;34799;51.440;-2.534;2023-01-05T09:03:53;11.60;99.90
48988;DHT22;34799;51.440;-2.534;2023-01-05T09:06:20;11.60;99.90
48988;DHT22;34799;51.440;-2.534;2023-01-05T09:08:47;11.60;99.90
48988;DHT22;34799;51.440;-2.534;2023-01-05T09:11:17;11.60;99.90
48988;DHT22;34799;51.440;-2.534;2023-01-05T09:13:47;11.70;99.90
48988;DHT22;34799;51.440;-2.534;2023-01-05T09:16:17;11.70;99.90
48988;DHT22;34799;51.440;-2.534;2023-01-05T09:18:56;13.50;99.90
48988;DHT22;34799;51.440;-2.534;2023-01-05T09:21:24;11.70;99.90
48988;DHT22;34799;51.440;-2.534;2023-01-05T09:23:51;11.80;99.90
48988;DHT22;34799;51.440;-2.534;2023-01-05T09:26:18;11.80;99.90
48988;DHT22;34799;51.440;-2.534;2023-01-05T09:28:47;11.80;99.90
48988;DHT22;34799;51.440;-2.534;2023-01-05T09:31:16;11.80;99.90
48988;DHT22;34799;51.440;-2.534;2023-01-05T09:33:45;11.90;99.90
48988;DHT22;34799;51.440;-2.534;2023-01-05T09:36:15;12.00;99.90
48988;DHT22;34799;51.440;-2.534;2023-01-05T09:38:42;11.90;99.90
48988;DHT22;34799;51.440;-2.534;2023-01-05T09:46:55;11.90;99.90
48988;DHT22;34799;51.440;-2.534;2023-01-05T09:49:23;11.90;99.90
48988;DHT22;34799;51.440;-2.534;2023-01-05T09:52:02;11.90;99.90
48988;DHT22;34799;51.440;-2.534;2023-01-05T09:54:32;11.90;99.90
48988;DHT22;34799;51.440;-2.534;2023-01-05T09:57:03;11.90;99.90
48988;DHT22;34799;51.440;-2.534;2023-01-05T09:59:39;11.90;99.90
48988;DHT22;34799;51.440;-2.534;2023-01-05T10:02:33;11.90;99.90
48988;DHT22;34799;51.440;-2.534;2023-01-05T10:05:06;11.90;99.90
48988;DHT22;34799;51.440;-2.534;2023-01-05T10:07:41;11.90;99.90
48988;DHT22;34799;51.440;-2.534;2023-01-05T10:10:42;12.00;99.90
48988;DHT22;34799;51.440;-2.534;2023-01-05T10:13:29;11.90;99.90
48988;DHT22;34799;51.440;-2.534;2023-01-05T10:15:58;11.90;99.90
48988;DHT22;34799;51.440;-2.534;2023-01-05T10:18:28;12.00;99.90
48988;DHT22;34799;51.440;-2.534;2023-01-05T10:26:43;12.00;99.90
48988;DHT22;34799;51.440;-2.534;2023-01-05T10:29:56;12.00;99.90
48988;DHT22;34799;51.440;-2.534;2023-01-05T10:33:11;12.00;99.90
48988;DHT22;34799;51.440;-2.534;2023-01-05T10:38:39;12.00;99.90
48988;DHT22;34799;51.440;-2.534;2023-01-05T10:41:27;12.10;99.90
48988;DHT22;34799;51.440;-2.534;2023-01-05T10:46:46;12.10;99.90
48988;DHT22;34799;51.440;-2.534;2023-01-05T10:49:23;12.10;99.90
48988;DHT22;34799;51.440;-2.534;2023-01-05T10:51:52;12.10;99.90
48988;DHT22;34799;51.440;-2.534;2023-01-05T10:54:38;12.20;99.90
48988;DHT22;34799;51.440;-2.534;2023-01-05T11:00:03;12.20;99.90
48988;DHT22;34799;51.440;-2.534;2023-01-05T11:02:34;12.20;99.90
48988;DHT22;34799;51.440;-2.534;2023-01-05T11:07:58;11.60;99.90
48988;DHT22;34799;51.440;-2.534;2023-01-05T11:10:33;12.20;99.90
48988;DHT22;34799;51.440;-2.534;2023-01-05T11:13:17;12.20;99.90
48988;DHT22;34799;51.440;-2.534;2023-01-05T11:16:12;12.30;99.90
48988;DHT22;34799;51.440;-2.534;2023-01-05T11:18:56;12.30;99.90
48988;DHT22;34799;51.440;-2.534;2023-01-05T11:21:45;12.30;99.90
48988;DHT22;34799;51.440;-2.534;2023-01-05T11:26:51;12.40;99.90
48988;DHT22;34799;51.440;-2.534;2023-01-05T11:29:19;12.20;99.90
48988;DHT22;34799;51.440;-2.534;2023-01-05T11:34:42;12.20;99.90
48988;DHT22;34799;51.440;-2.534;2023-01-05T11:39:55;12.30;99.90
48988;DHT22;34799;51.440;-2.534;2023-01-05T11:44:54;12.50;99.90
48988;DHT22;34799;51.440;-2.534;2023-01-05T11:47:24;12.50;99.90
48988;DHT22;34799;51.440;-2.534;2023-01-05T11:52:38;12.70;99.90
48988;DHT22;34799;51.440;-2.534;2023-01-05T11:55:33;12.80;99.90
48988;DHT22;34799;51.440;-2.534;2023-01-05T11:58:24;12.80;99.90
48988;DHT22;34799;51.440;-2.534;2023-01-05T12:07:15;12.80;99.90
48988;DHT22;34799;51.440;-2.534;2023-01-05T12:09:58;12.90;99.90
48988;DHT22;34799;51.440;-2.534;2023-01-05T12:12:40;13.00;99.90
48988;DHT22;34799;51.440;-2.534;2023-01-05T12:21:43;13.00;99.90
48988;DHT22;34799;51.440;-2.534;2023-01-05T12:27:09;13.10;99.90
48988;DHT22;34799;51.440;-2.534;2023-01-05T12:32:40;13.20;99.90
48988;DHT22;34799;51.440;-2.534;2023-01-05T12:49:36;13.30;99.90
48988;DHT22;34799;51.440;-2.534;2023-01-05T12:57:46;13.30;99.90
48988;DHT22;34799;51.440;-2.534;2023-01-05T13:00:19;13.30;99.90
48988;DHT22;34799;51.440;-2.534;2023-01-05T13:02:54;13.30;99.90
48988;DHT22;34799;51.440;-2.534;2023-01-05T13:11:02;13.20;99.90
48988;DHT22;34799;51.440;-2.534;2023-01-05T13:13:37;13.10;99.90
48988;DHT22;34799;51.440;-2.534;2023-01-05T13:16:16;13.00;99.90
48988;DHT22;34799;51.440;-2.534;2023-01-05T13:18:51;13.00;99.90
48988;DHT22;34799;51.440;-2.534;2023-01-05T13:21:20;13.00;99.90
48988;DHT22;34799;51.440;-2.534;2023-01-05T13:24:01;13.00;99.90
48988;DHT22;34799;51.440;-2.534;2023-01-05T13:26:29;12.90;99.90
48988;DHT22;34799;51.440;-2.534;2023-01-05T13:29:02;12.90;99.90
48988;DHT22;34799;51.440;-2.534;2023-01-05T13:43:04;12.90;99.90
48988;DHT22;34799;51.440;-2.534;2023-01-05T13:54:39;13.00;99.90
48988;DHT22;34799;51.440;-2.534;2023-01-05T13:57:28;13.00;99.90
48988;DHT22;34799;51.440;-2.534;2023-01-05T14:00:02;13.10;99.90
48988;DHT22;34799;51.440;-2.534;2023-01-05T14:02:40;13.00;99.90
48988;DHT22;34799;51.440;-2.534;2023-01-05T14:05:31;13.10;99.90
48988;DHT22;34799;51.440;-2.534;2023-01-05T14:08:02;13.20;99.90
48988;DHT22;34799;51.440;-2.534;2023-01-05T14:10:32;13.20;99.90
48988;DHT22;34799;51.440;-2.534;2023-01-05T14:12:59;13.10;99.90
48988;DHT22;34799;51.440;-2.534;2023-01-05T14:15:37;13.10;99.90
48988;DHT22;34799;51.440;-2.534;2023-01-05T14:18:47;13.10;99.90
48988;DHT22;34799;51.440;-2.534;2023-01-05T14:21:09;13.10;99.90
48988;DHT22;34799;51.440;-2.534;2023-01-05T14:26:08;13.00;99.90
48988;DHT22;34799;51.440;-2.534;2023-01-05T14:33:50;13.00;99.90
48988;DHT22;34799;51.440;-2.534;2023-01-05T14:36:25;12.90;99.90
48988;DHT22;34799;51.440;-2.534;2023-01-05T14:38:54;12.90;99.90
48988;DHT22;34799;51.440;-2.534;2023-01-05T14:41:23;14.80;99.90
48988;DHT22;34799;51.440;-2.534;2023-01-05T14:43:59;12.90;99.90
48988;DHT22;34799;51.440;-2.534;2023-01-05T14:46:45;12.80;99.90
48988;DHT22;34799;51.440;-2.534;2023-01-05T14:51:58;12.80;99.90
48988;DHT22;34799;51.440;-2.534;2023-01-05T15:00:15;12.70;99.90
48988;DHT22;34799;51.440;-2.534;2023-01-05T15:05:27;12.70;99.90
48988;DHT22;34799;51.440;-2.534;2023-01-05T15:08:01;12.60;99.90
48988;DHT22;34799;51.440;-2.534;2023-01-05T15:11:17;12.60;99.90
48988;DHT22;34799;51.440;-2.534;2023-01-05T15:13:55;12.60;99.90
48988;DHT22;34799;51.440;-2.534;2023-01-05T15:25:40;12.60;99.90
48988;DHT22;34799;51.440;-2.534;2023-01-05T15:31:27;12.60;99.90
48988;DHT22;34799;51.440;-2.534;2023-01-05T15:34:59;12.60;99.90
48988;DHT22;34799;51.440;-2.534;2023-01-05T15:37:36;12.70;99.90
48988;DHT22;34799;51.440;-2.534;2023-01-05T15:40:12;12.60;99.90
48988;DHT22;34799;51.440;-2.534;2023-01-05T15:42:57;12.60;99.90
48988;DHT22;34799;51.440;-2.534;2023-01-05T15:45:30;12.60;99.90
48988;DHT22;34799;51.440;-2.534;2023-01-05T15:48:26;12.60;99.90
48988;DHT22;34799;51.440;-2.534;2023-01-05T15:50:56;12.50;99.90
48988;DHT22;34799;51.440;-2.534;2023-01-05T15:53:32;12.60;99.90
48988;DHT22;34799;51.440;-2.534;2023-01-05T15:56:03;12.60;99.90
48988;DHT22;34799;51.440;-2.534;2023-01-05T15:58:41;12.50;99.90
48988;DHT22;34799;51.440;-2.534;2023-01-05T16:01:14;12.50;99.90
48988;DHT22;34799;51.440;-2.534;2023-01-05T16:03:43;12.60;99.90
48988;DHT22;34799;51.440;-2.534;2023-01-05T16:06:23;11.60;99.90
48988;DHT22;34799;51.440;-2.534;2023-01-05T16:08:53;12.40;99.90
48988;DHT22;34799;51.440;-2.534;2023-01-05T16:11:35;12.40;99.90
48988;DHT22;34799;51.440;-2.534;2023-01-05T16:16:43;12.40;99.90
48988;DHT22;34799;51.440;-2.534;2023-01-05T16:19:32;12.30;99.90
48988;DHT22;34799;51.440;-2.534;2023-01-05T16:27:24;12.30;99.90
48988;DHT22;34799;51.440;-2.534;2023-01-05T16:29:52;12.30;99.90
48988;DHT22;34799;51.440;-2.534;2023-01-05T16:32:35;12.30;99.90
48988;DHT22;34799;51.440;-2.534;2023-01-05T16:35:37;12.30;99.90
48988;DHT22;34799;51.440;-2.534;2023-01-05T16:40:55;12.30;99.90
48988;DHT22;34799;51.440;-2.534;2023-01-05T16:43:30;12.30;99.90
48988;DHT22;34799;51.440;-2.534;2023-01-05T16:48:48;12.30;99.90
48988;DHT22;34799;51.440;-2.534;2023-01-05T16:51:22;12.30;99.90
48988;DHT22;34799;51.440;-2.534;2023-01-05T16:53:56;12.30;99.90
48988;DHT22;34799;51.440;-2.534;2023-01-05T16:59:29;12.40;99.90
48988;DHT22;34799;51.440;-2.534;2023-01-05T17:01:48;12.30;99.90
48988;DHT22;34799;51.440;-2.534;2023-01-05T17:04:17;12.30;99.90
48988;DHT22;34799;51.440;-2.534;2023-01-05T17:06:47;12.30;99.90
48988;DHT22;34799;51.440;-2.534;2023-01-05T17:09:27;12.20;99.90
48988;DHT22;34799;51.440;-2.534;2023-01-05T17:11:56;12.20;99.90
48988;DHT22;34799;51.440;-2.534;2023-01-05T17:14:25;12.30;99.90
48988;DHT22;34799;51.440;-2.534;2023-01-05T17:16:53;12.20;99.90
48988;DHT22;34799;51.440;-2.534;2023-01-05T17:19:22;12.20;99.90
48988;DHT22;34799;51.440;-2.534;2023-01-05T17:21:58;12.20;99.90
48988;DHT22;34799;51.440;-2.534;2023-01-05T17:24:27;12.20;99.90
48988;DHT22;34799;51.440;-2.534;2023-01-05T17:26:58;12.10;99.90
48988;DHT22;34799;51.440;-2.534;2023-01-05T17:29:28;12.10;99.90
48988;DHT22;34799;51.440;-2.534;2023-01-05T17:31:55;12.10;99.90
48988;DHT22;34799;51.440;-2.534;2023-01-05T17:34:24;12.10;99.90
48988;DHT22;34799;51.440;-2.534;2023-01-05T17:36:54;12.00;99.90
48988;DHT22;34799;51.440;-2.534;2023-01-05T17:39:22;12.00;99.90
48988;DHT22;34799;51.440;-2.534;2023-01-05T17:41:51;12.00;99.90
48988;DHT22;34799;51.440;-2.534;2023-01-05T17:44:18;12.10;99.90
48988;DHT22;34799;51.440;-2.534;2023-01-05T17:46:46;12.10;99.90
48988;DHT22;34799;51.440;-2.534;2023-01-05T17:49:18;12.10;99.90
48988;DHT22;34799;51.440;-2.534;2023-01-05T17:51:46;12.10;99.90
48988;DHT22;34799;51.440;-2.534;2023-01-05T17:54:13;12.10;99.90
48988;DHT22;34799;51.440;-2.534;2023-01-05T17:56:40;12.10;99.90
48988;DHT22;34799;51.440;-2.534;2023-01-05T17:59:09;13.40;99.90
48988;DHT22;34799;51.440;-2.534;2023-01-05T18:01:36;12.10;99.90
48988;DHT22;34799;51.440;-2.534;2023-01-05T18:04:04;12.10;99.90
48988;DHT22;34799;51.440;-2.534;2023-01-05T18:06:31;12.10;99.90
48988;DHT22;34799;51.440;-2.534;2023-01-05T18:08:58;12.10;99.90
48988;DHT22;34799;51.440;-2.534;2023-01-05T18:11:25;12.10;99.90
48988;DHT22;34799;51.440;-2.534;2023-01-05T18:13:53;12.10;99.90
48988;DHT22;34799;51.440;-2.534;2023-01-05T18:16:20;12.10;99.90
48988;DHT22;34799;51.440;-2.534;2023-01-05T18:18:47;12.10;99.90
48988;DHT22;34799;51.440;-2.534;2023-01-05T18:21:14;12.10;99.90
48988;DHT22;34799;51.440;-2.534;2023-01-05T18:23:41;12.10;99.90
48988;DHT22;34799;51.440;-2.534;2023-01-05T18:26:09;12.10;99.90
48988;DHT22;34799;51.440;-2.534;2023-01-05T18:28:37;12.10;99.90